Time;durP1;ratioP1;P1;durP2;ratioP2;P2;SDS_P1;SDS_P2;PMS_P1;PMS_P2;Temp;Humidity;BMP_temperature;BMP_pressure;BME280_temperature;BME280_humidity;BME280_pressure;Samples;Min_cycle;Max_cycle;Signal;HPM_P1;HPM_P2
2022/08/28 00:02:22;;;;;;;10.38;4.13;;;17.10;61.80;;;;;;9179907;19;20491;-65
2022/08/28 00:05:31;;;;;;;14.23;4.20;;;17.10;61.90;;;;;;9187780;19;20022;-65
2022/08/28 00:08:36;;;;;;;9.25;3.63;;;17.00;62.00;;;;;;9186667;19;20014;-66
2022/08/28 00:11:44;;;;;;;17.85;5.35;;;17.00;62.10;;;;;;9184608;19;20025;-66
2022/08/28 00:14:49;;;;;;;26.48;4.75;;;17.00;62.20;;;;;;9186364;19;20517;-66
2022/08/28 00:17:54;;;;;;;9.52;4.22;;;16.90;62.20;;;;;;9186648;19;20026;-65
2022/08/28 00:21:00;;;;;;;12.02;4.28;;;16.90;62.30;;;;;;9184671;19;20016;-65
2022/08/28 00:24:06;;;;;;;16.67;4.43;;;16.90;62.40;;;;;;9187149;19;20015;-64
2022/08/28 00:30:36;;;;;;;13.98;5.22;;;16.80;62.50;;;;;;9185757;19;20022;-65
2022/08/28 00:33:42;;;;;;;15.68;4.72;;;16.80;62.60;;;;;;9185434;19;20018;-66
2022/08/28 00:36:47;;;;;;;13.38;4.60;;;16.70;62.60;;;;;;9186373;19;20018;-64
2022/08/28 00:39:52;;;;;;;15.32;4.97;;;16.70;62.70;;;;;;9183341;19;20025;-65
2022/08/28 00:43:00;;;;;;;18.50;4.85;;;16.70;62.80;;;;;;9183370;19;20368;-67
2022/08/28 00:46:08;;;;;;;14.60;5.15;;;16.70;63.00;;;;;;9184820;19;20011;-65
2022/08/28 00:49:13;;;;;;;11.27;4.30;;;16.60;63.00;;;;;;9186010;19;20030;-65
2022/08/28 00:52:20;;;;;;;17.13;5.00;;;16.60;63.10;;;;;;9184792;19;20025;-66
2022/08/28 00:55:28;;;;;;;13.02;4.47;;;16.60;63.20;;;;;;9185169;19;20029;-65
2022/08/28 00:58:36;;;;;;;14.13;4.65;;;16.60;63.30;;;;;;9184907;19;20028;-65
2022/08/28 01:01:41;;;;;;;16.67;4.80;;;16.60;63.40;;;;;;9183699;19;20014;-65
2022/08/28 01:04:46;;;;;;;16.63;5.30;;;16.50;63.30;;;;;;9184680;19;20023;-65
2022/08/28 01:07:52;;;;;;;13.52;5.20;;;16.50;63.40;;;;;;9184455;19;20442;-68
2022/08/28 01:10:58;;;;;;;20.80;5.78;;;16.50;63.50;;;;;;9184495;19;20011;-66
2022/08/28 01:14:07;;;;;;;12.52;5.32;;;16.50;63.60;;;;;;9184269;19;20019;-65
2022/08/28 01:17:13;;;;;;;15.10;4.85;;;16.50;63.70;;;;;;9184185;19;20033;-65
2022/08/28 01:20:22;;;;;;;12.43;4.80;;;16.40;63.60;;;;;;9183135;19;20014;-65
2022/08/28 01:23:46;;;;;;;15.07;5.53;;;16.40;63.70;;;;;;9184435;19;20022;-65
2022/08/28 01:26:51;;;;;;;13.63;5.32;;;16.40;63.90;;;;;;9180578;19;20014;-65
2022/08/28 01:29:56;;;;;;;16.98;5.60;;;16.40;63.80;;;;;;9183153;19;20024;-64
2022/08/28 01:33:01;;;;;;;19.77;5.00;;;16.30;63.80;;;;;;9183241;19;20026;-66
2022/08/28 01:36:07;;;;;;;18.60;4.90;;;16.30;63.90;;;;;;9183584;19;20015;-65
2022/08/28 01:39:18;;;;;;;15.25;4.97;;;16.30;64.00;;;;;;9180955;19;20023;-65
2022/08/28 01:42:24;;;;;;;14.98;5.43;;;16.30;64.10;;;;;;9180964;19;20022;-64
2022/08/28 01:45:30;;;;;;;19.35;5.20;;;16.30;64.10;;;;;;9183402;19;20010;-63
2022/08/28 01:48:38;;;;;;;16.55;5.10;;;16.20;64.10;;;;;;9182700;19;20019;-65
2022/08/28 01:51:43;;;;;;;19.98;5.50;;;16.20;64.30;;;;;;9183042;19;20043;-64
2022/08/28 01:54:51;;;;;;;14.80;5.22;;;16.20;64.30;;;;;;9184359;19;20010;-64
2022/08/28 01:57:57;;;;;;;11.65;5.60;;;16.10;64.40;;;;;;9180724;19;20031;-65
2022/08/28 02:01:02;;;;;;;13.63;5.07;;;16.10;64.40;;;;;;9182097;19;20033;-65
2022/08/28 02:04:08;;;;;;;11.60;5.50;;;16.00;64.40;;;;;;9181429;19;20025;-65
2022/08/28 02:07:13;;;;;;;15.13;5.07;;;16.00;64.50;;;;;;9182746;19;20472;-65
2022/08/28 02:10:24;;;;;;;18.75;6.10;;;16.00;64.50;;;;;;9182250;19;20040;-64
2022/08/28 02:13:29;;;;;;;13.90;5.10;;;16.00;64.60;;;;;;9181189;19;20060;-64
2022/08/28 02:16:34;;;;;;;10.55;5.25;;;16.00;64.60;;;;;;9181135;19;20039;-66
2022/08/28 02:19:39;;;;;;;9.30;5.05;;;15.90;64.60;;;;;;9179915;19;20010;-64
2022/08/28 02:22:43;;;;;;;14.32;5.35;;;15.90;64.70;;;;;;9180556;19;20393;-63
2022/08/28 02:25:51;;;;;;;9.88;4.80;;;15.90;64.80;;;;;;9179990;19;20011;-64
2022/08/28 02:28:57;;;;;;;13.27;4.63;;;15.80;64.90;;;;;;9175847;19;20023;-64
2022/08/28 02:32:04;;;;;;;12.85;5.22;;;15.80;64.90;;;;;;9181216;19;20473;-64
2022/08/28 02:35:11;;;;;;;15.75;5.05;;;15.80;64.90;;;;;;9179376;19;20025;-65
2022/08/28 02:38:16;;;;;;;14.23;4.85;;;15.70;65.00;;;;;;9181472;19;20452;-67
2022/08/28 02:41:25;;;;;;;16.27;4.60;;;15.70;65.00;;;;;;9179615;19;20356;-65
2022/08/28 02:44:30;;;;;;;13.50;5.22;;;15.70;65.10;;;;;;9179102;19;20467;-66
2022/08/28 02:47:35;;;;;;;13.65;5.53;;;15.70;65.10;;;;;;9181608;19;20014;-63
2022/08/28 02:50:40;;;;;;;12.02;4.75;;;15.70;65.20;;;;;;9180696;19;20014;-63
2022/08/28 02:53:45;;;;;;;21.75;6.07;;;15.60;65.30;;;;;;9179028;19;20014;-66
2022/08/28 02:56:53;;;;;;;11.45;5.05;;;15.50;65.20;;;;;;9180709;19;20381;-66
2022/08/28 02:59:58;;;;;;;10.55;5.28;;;15.60;65.40;;;;;;9180891;19;20018;-64
2022/08/28 03:03:04;;;;;;;19.30;5.55;;;15.50;65.40;;;;;;9178561;19;20372;-65
2022/08/28 03:06:10;;;;;;;15.82;5.60;;;15.50;65.40;;;;;;9179479;19;20014;-65
2022/08/28 03:09:15;;;;;;;11.43;5.25;;;15.40;65.40;;;;;;9180391;19;20377;-66
2022/08/28 03:12:23;;;;;;;13.07;4.88;;;15.40;65.50;;;;;;9180637;19;20022;-65
2022/08/28 03:15:28;;;;;;;12.27;5.05;;;15.40;65.60;;;;;;9180310;19;20068;-66
2022/08/28 03:18:34;;;;;;;17.67;5.13;;;15.40;65.70;;;;;;9180593;19;20356;-64
2022/08/28 03:21:40;;;;;;;11.02;5.25;;;15.30;65.60;;;;;;9179415;19;20086;-66
2022/08/28 03:24:45;;;;;;;12.65;5.93;;;15.30;65.70;;;;;;9178822;19;20018;-65
2022/08/28 03:27:53;;;;;;;16.25;5.30;;;15.20;65.70;;;;;;9175943;19;20487;-64
2022/08/28 03:30:58;;;;;;;12.90;6.50;;;15.20;65.80;;;;;;9177790;19;20342;-65
2022/08/28 03:34:04;;;;;;;10.85;4.60;;;15.20;65.80;;;;;;9178528;19;20089;-64
2022/08/28 03:37:09;;;;;;;9.70;4.63;;;15.20;65.90;;;;;;9177442;19;20595;-66
2022/08/28 03:40:15;;;;;;;12.23;4.72;;;15.20;66.00;;;;;;9177323;19;20014;-66
2022/08/28 03:43:25;;;;;;;20.73;4.97;;;15.10;66.00;;;;;;9176994;19;20018;-66
2022/08/28 03:46:33;;;;;;;17.83;5.38;;;15.10;66.10;;;;;;9178940;19;20019;-67
2022/08/28 03:49:38;;;;;;;10.68;4.78;;;15.10;66.20;;;;;;9178850;19;20029;-66
2022/08/28 03:52:43;;;;;;;14.95;4.57;;;15.00;66.10;;;;;;9178055;19;20022;-65
2022/08/28 03:55:48;;;;;;;16.33;4.70;;;15.00;66.10;;;;;;9178299;19;20018;-66
2022/08/28 03:58:59;;;;;;;10.75;5.45;;;14.90;66.10;;;;;;9177517;19;20023;-64
2022/08/28 04:02:04;;;;;;;14.88;5.60;;;14.90;66.30;;;;;;9177463;19;20372;-65
2022/08/28 04:05:09;;;;;;;9.10;4.72;;;14.90;66.30;;;;;;9177946;19;20021;-66
2022/08/28 04:08:16;;;;;;;14.18;4.55;;;14.90;66.40;;;;;;9178254;19;20017;-66
2022/08/28 04:11:21;;;;;;;14.20;5.28;;;14.80;66.40;;;;;;9177340;19;20771;-65
2022/08/28 04:14:28;;;;;;;10.35;4.82;;;14.80;66.40;;;;;;9178080;19;20023;-64
2022/08/28 04:17:33;;;;;;;10.80;5.03;;;14.70;66.50;;;;;;9178108;19;20506;-65
2022/08/28 04:20:39;;;;;;;13.45;4.60;;;14.80;66.50;;;;;;9177734;19;20030;-64
2022/08/28 04:23:45;;;;;;;14.15;4.78;;;14.70;66.50;;;;;;9174997;19;20109;-65
2022/08/28 04:26:50;;;;;;;14.93;4.38;;;14.70;66.60;;;;;;9172016;19;20027;-66
2022/08/28 04:29:58;;;;;;;9.48;4.20;;;14.70;66.70;;;;;;9177189;19;20028;-65
2022/08/28 04:33:03;;;;;;;11.10;4.13;;;14.70;66.80;;;;;;9177895;19;20507;-65
2022/08/28 04:36:13;;;;;;;13.52;4.65;;;14.60;66.70;;;;;;9177399;19;20380;-65
2022/08/28 04:39:18;;;;;;;10.57;4.05;;;14.60;66.90;;;;;;9174251;19;20383;-64
2022/08/28 04:42:23;;;;;;;16.67;4.25;;;14.60;66.80;;;;;;9170947;19;20022;-64
2022/08/28 04:45:30;;;;;;;11.65;4.82;;;14.60;66.90;;;;;;9170380;19;20014;-66
2022/08/28 04:48:35;;;;;;;16.02;4.90;;;14.50;67.00;;;;;;9176104;19;20089;-65
2022/08/28 04:51:41;;;;;;;12.95;4.82;;;14.50;67.00;;;;;;9181031;19;20605;-65
2022/08/28 04:54:46;;;;;;;13.45;4.72;;;14.50;67.00;;;;;;9178782;19;20022;-64
2022/08/28 04:57:51;;;;;;;13.60;4.57;;;14.50;67.10;;;;;;9181112;19;20025;-64
2022/08/28 05:00:59;;;;;;;12.18;4.63;;;14.40;67.10;;;;;;9180142;19;20421;-64
2022/08/28 05:04:05;;;;;;;8.07;4.50;;;14.40;67.20;;;;;;9175693;19;20026;-65
2022/08/28 05:07:10;;;;;;;8.65;4.28;;;14.40;67.80;;;;;;9181387;19;20120;-65
2022/08/28 05:10:15;;;;;;;10.10;4.30;;;14.40;67.30;;;;;;9179825;19;20022;-65
2022/08/28 05:13:20;;;;;;;11.02;4.78;;;14.40;67.30;;;;;;9179833;19;20027;-66
2022/08/28 05:16:28;;;;;;;13.63;3.90;;;14.40;67.40;;;;;;9181612;19;20023;-65
2022/08/28 05:19:34;;;;;;;21.58;4.00;;;14.30;67.40;;;;;;9180227;19;20033;-66
2022/08/28 05:22:39;;;;;;;10.82;3.53;;;14.30;67.50;;;;;;9177172;19;20023;-65
2022/08/28 05:25:46;;;;;;;13.25;3.95;;;14.30;67.50;;;;;;9180312;19;20582;-65
2022/08/28 05:28:51;;;;;;;10.60;4.88;;;14.30;67.60;;;;;;9176352;19;20066;-65
2022/08/28 05:31:58;;;;;;;9.73;4.13;;;14.30;67.60;;;;;;9178695;19;20825;-65
2022/08/28 05:35:03;;;;;;;9.95;4.15;;;14.30;67.70;;;;;;9179092;19;20498;-65
2022/08/28 05:38:09;;;;;;;12.10;3.65;;;14.30;67.70;;;;;;9178303;19;20046;-64
2022/08/28 05:41:19;;;;;;;9.43;3.88;;;14.30;67.80;;;;;;9175821;19;20029;-66
2022/08/28 05:44:24;;;;;;;16.00;4.32;;;14.20;67.80;;;;;;9176485;19;20025;-64
2022/08/28 05:47:33;;;;;;;12.27;4.05;;;14.30;67.90;;;;;;9177630;19;20014;-66
2022/08/28 05:50:39;;;;;;;11.68;4.20;;;14.20;68.00;;;;;;9178350;19;20389;-66
2022/08/28 05:53:51;;;;;;;8.63;3.67;;;14.20;68.00;;;;;;9178990;19;20057;-66
2022/08/28 05:56:56;;;;;;;12.95;4.28;;;14.30;68.10;;;;;;9179413;19;20094;-65
2022/08/28 06:00:01;;;;;;;7.82;3.88;;;14.30;68.20;;;;;;9174892;19;20043;-64
2022/08/28 06:03:10;;;;;;;7.43;3.42;;;14.30;68.20;;;;;;9175895;19;20020;-65
2022/08/28 06:06:15;;;;;;;15.70;4.43;;;14.30;68.40;;;;;;9178246;19;20011;-64
2022/08/28 06:09:22;;;;;;;6.10;3.40;;;14.30;68.40;;;;;;9177629;19;20022;-66
2022/08/28 06:12:33;;;;;;;16.73;4.93;;;14.40;68.50;;;;;;9178505;19;20479;-65
2022/08/28 06:15:43;;;;;;;10.98;4.43;;;14.40;68.60;;;;;;9177802;19;20023;-66
2022/08/28 06:18:51;;;;;;;13.40;4.10;;;14.40;68.80;;;;;;9177496;19;20018;-65
2022/08/28 06:21:58;;;;;;;15.48;3.80;;;14.50;68.90;;;;;;9177432;19;20018;-65
2022/08/28 06:25:06;;;;;;;11.63;4.72;;;14.60;68.90;;;;;;9176870;19;20022;-66
2022/08/28 06:28:11;;;;;;;20.13;4.20;;;14.70;69.00;;;;;;9172924;19;20025;-63
2022/08/28 06:31:17;;;;;;;12.05;4.43;;;14.80;69.10;;;;;;9176983;19;20025;-66
2022/08/28 06:34:32;;;;;;;10.80;3.45;;;14.90;69.20;;;;;;9178212;19;20352;-65
2022/08/28 06:37:37;;;;;;;17.90;4.13;;;15.00;69.30;;;;;;9176966;19;20049;-66
2022/08/28 06:40:43;;;;;;;12.23;3.42;;;15.20;69.30;;;;;;9174767;19;20018;-66
2022/08/28 06:43:48;;;;;;;14.15;3.70;;;15.40;69.80;;;;;;9175554;19;20452;-65
2022/08/28 06:46:56;;;;;;;11.25;4.32;;;15.50;69.40;;;;;;9177018;19;20377;-64
2022/08/28 06:50:03;;;;;;;5.82;3.15;;;15.70;69.40;;;;;;9174506;19;20018;-64
2022/08/28 06:53:08;;;;;;;11.48;3.30;;;15.80;69.30;;;;;;9176210;19;20360;-67
2022/08/28 06:56:17;;;;;;;5.40;2.80;;;16.00;69.20;;;;;;9175050;19;20057;-66
2022/08/28 06:59:30;;;;;;;13.65;3.97;;;16.20;69.10;;;;;;9176471;19;20086;-65
2022/08/28 07:02:35;;;;;;;16.35;3.47;;;16.30;69.00;;;;;;9162536;19;20022;-66
2022/08/28 07:05:43;;;;;;;8.57;2.65;;;16.50;69.00;;;;;;9175098;19;20018;-67
2022/08/28 07:08:48;;;;;;;9.55;2.83;;;16.60;69.10;;;;;;9172781;19;20412;-68
2022/08/28 07:11:53;;;;;;;14.35;2.90;;;16.80;69.10;;;;;;9174991;19;20019;-68
2022/08/28 07:15:00;;;;;;;12.52;2.85;;;17.00;69.00;;;;;;9176373;19;20022;-67
2022/08/28 07:18:06;;;;;;;7.45;2.65;;;17.10;68.90;;;;;;9179248;19;20086;-67
2022/08/28 07:21:15;;;;;;;8.98;2.38;;;17.30;69.50;;;;;;9179308;19;20014;-68
2022/08/28 07:24:20;;;;;;;7.03;2.38;;;17.50;68.70;;;;;;9176274;19;20018;-68
2022/08/28 07:27:26;;;;;;;10.65;2.63;;;17.60;68.50;;;;;;9158301;19;20025;-70
2022/08/28 07:30:31;;;;;;;25.38;4.70;;;17.80;68.50;;;;;;9166852;19;20498;-68
2022/08/28 07:33:36;;;;;;;11.23;2.70;;;18.00;68.40;;;;;;9169268;19;20037;-68
2022/08/28 07:36:44;;;;;;;6.05;2.10;;;18.10;68.20;;;;;;9168114;19;20022;-69
2022/08/28 07:39:49;;;;;;;7.50;2.65;;;18.30;68.10;;;;;;9161116;19;20030;-69
2022/08/28 07:46:12;;;;;;;9.82;1.98;;;18.60;67.80;;;;;;9163083;19;20030;-70
2022/08/28 07:49:18;;;;;;;11.77;2.25;;;18.70;67.60;;;;;;9166018;19;20095;-68
2022/08/28 07:52:26;;;;;;;9.90;2.53;;;18.90;67.50;;;;;;9167731;19;20018;-68
2022/08/28 07:55:31;;;;;;;9.48;2.10;;;19.00;67.20;;;;;;9166181;19;20049;-69
2022/08/28 07:58:37;;;;;;;10.27;2.53;;;19.20;67.10;;;;;;9166358;19;20015;-70
2022/08/28 08:01:45;;;;;;;8.10;2.08;;;19.30;66.90;;;;;;9165828;19;20525;-69
2022/08/28 08:04:50;;;;;;;11.75;2.08;;;19.40;66.70;;;;;;9159100;19;20081;-69
2022/08/28 08:07:58;;;;;;;7.68;1.77;;;19.50;66.70;;;;;;9164414;19;20810;-71
2022/08/28 08:11:06;;;;;;;9.45;2.53;;;19.50;66.50;;;;;;9164716;19;20038;-70
2022/08/28 08:14:15;;;;;;;6.75;2.20;;;19.70;66.50;;;;;;9164817;19;20014;-69
2022/08/28 08:17:20;;;;;;;10.02;1.77;;;19.80;66.30;;;;;;9162161;19;20029;-71
2022/08/28 08:20:25;;;;;;;8.27;2.10;;;20.00;66.00;;;;;;9166297;19;20017;-67
2022/08/28 08:23:34;;;;;;;6.05;1.65;;;20.10;65.90;;;;;;9169913;19;20014;-69
2022/08/28 08:26:44;;;;;;;14.95;2.20;;;20.20;65.70;;;;;;9171744;19;20099;-71
2022/08/28 08:30:00;;;;;;;9.52;1.83;;;20.40;65.50;;;;;;9174434;19;20014;-70
2022/08/28 08:33:05;;;;;;;8.45;1.67;;;20.60;65.30;;;;;;9173562;19;20014;-70
2022/08/28 08:36:13;;;;;;;5.28;2.03;;;20.70;65.00;;;;;;9176197;19;20011;-69
2022/08/28 08:39:21;;;;;;;5.03;1.73;;;20.90;64.70;;;;;;9172718;19;20026;-68
2022/08/28 08:42:28;;;;;;;4.68;1.73;;;21.00;64.30;;;;;;9176842;19;20478;-68
2022/08/28 08:45:35;;;;;;;6.22;1.70;;;21.20;64.10;;;;;;9170622;19;20014;-73
2022/08/28 08:48:46;;;;;;;10.93;1.55;;;21.30;63.80;;;;;;9172454;19;20028;-69
2022/08/28 08:52:00;;;;;;;8.18;1.40;;;21.40;63.60;;;;;;9171629;19;20018;-70
2022/08/28 08:55:18;;;;;;;;;;;21.60;63.20;;;;;;9170257;19;20368;-67
2022/08/28 08:58:31;;;;;;;6.07;1.35;;;21.70;63.30;;;;;;9169628;19;19922;-63
2022/08/28 09:01:43;;;;;;;2.88;1.50;;;21.90;63.10;;;;;;9168548;19;20014;-67
2022/08/28 09:04:56;;;;;;;7.80;1.67;;;22.10;62.90;;;;;;9168694;19;20624;-68
2022/08/28 09:08:04;;;;;;;7.05;1.83;;;22.30;62.60;;;;;;9163487;19;20019;-65
2022/08/28 09:11:26;;;;;;;9.73;1.83;;;22.40;62.20;;;;;;9171450;19;20491;-68
2022/08/28 09:14:43;;;;;;;8.15;1.40;;;22.70;61.70;;;;;;9174198;19;20018;-65
2022/08/28 09:17:51;;;;;;;4.80;1.48;;;22.90;61.30;;;;;;9174178;19;20022;-65
2022/08/28 09:20:58;;;;;;;5.10;1.83;;;23.00;61.00;;;;;;9168934;19;20701;-66
2022/08/28 09:24:05;;;;;;;5.57;1.70;;;23.10;60.60;;;;;;9173644;19;20025;-67
2022/08/28 09:27:27;;;;;;;9.13;1.60;;;23.20;60.30;;;;;;9163389;19;20026;-64
2022/08/28 09:30:33;;;;;;;5.93;1.88;;;23.30;59.70;;;;;;9170020;19;20019;-62
2022/08/28 09:33:43;;;;;;;3.67;1.42;;;23.30;59.90;;;;;;9171652;19;20019;-66
2022/08/28 09:36:48;;;;;;;4.47;1.30;;;23.30;59.60;;;;;;9168698;19;20052;-66
2022/08/28 09:40:18;;;;;;;5.50;1.75;;;23.30;59.50;;;;;;9168405;19;20030;-67
2022/08/28 09:43:25;;;;;;;4.80;1.55;;;23.40;59.10;;;;;;9167875;19;20385;-63
2022/08/28 09:46:33;;;;;;;8.60;1.63;;;23.40;59.30;;;;;;9169022;19;20029;-65
2022/08/28 09:49:38;;;;;;;10.32;1.63;;;23.50;59.20;;;;;;9166782;19;20492;-63
2022/08/28 09:52:43;;;;;;;4.85;1.67;;;23.60;59.00;;;;;;9165539;19;20015;-70
2022/08/28 09:55:59;;;;;;;6.35;1.75;;;23.70;58.80;;;;;;9171984;19;20479;-68
2022/08/28 09:59:08;;;;;;;6.75;2.03;;;23.80;58.40;;;;;;9171484;19;20019;-68
2022/08/28 10:02:24;;;;;;;3.47;1.38;;;23.90;58.40;;;;;;9174470;19;20439;-70
2022/08/28 10:05:39;;;;;;;8.98;1.50;;;23.90;57.80;;;;;;9172292;19;20022;-70
2022/08/28 10:08:55;;;;;;;14.15;1.77;;;23.90;57.70;;;;;;9172194;19;20018;-73
2022/08/28 10:12:12;;;;;;;3.30;1.35;;;23.80;57.40;;;;;;9174481;19;20499;-70
2022/08/28 10:15:23;;;;;;;5.38;1.40;;;23.70;57.30;;;;;;9171626;19;20022;-71
2022/08/28 10:18:37;;;;;;;6.18;1.67;;;23.70;57.30;;;;;;9174684;19;20014;-71
2022/08/28 10:21:46;;;;;;;;;;;23.60;57.30;;;;;;9172713;19;20501;-69
2022/08/28 10:25:04;;;;;;;7.57;1.75;;;23.60;57.60;;;;;;9175548;19;19918;-65
2022/08/28 10:28:34;;;;;;;2.72;1.13;;;23.50;57.40;;;;;;9168482;19;20019;-63
2022/08/28 10:31:47;;;;;;;3.83;1.35;;;23.50;57.10;;;;;;9171020;19;20102;-63
2022/08/28 10:35:02;;;;;;;5.15;1.13;;;23.40;57.20;;;;;;9171497;19;20018;-65
2022/08/28 10:38:13;;;;;;;4.65;1.40;;;23.40;57.10;;;;;;9168485;19;20058;-64
2022/08/28 10:41:23;;;;;;;3.00;1.27;;;23.50;57.10;;;;;;9167224;19;20018;-64
2022/08/28 10:44:38;;;;;;;3.00;1.45;;;23.60;56.90;;;;;;9167052;19;20022;-64
2022/08/28 10:47:48;;;;;;;3.80;1.33;;;23.70;56.70;;;;;;9164382;19;20527;-66
2022/08/28 10:50:56;;;;;;;4.97;1.45;;;23.80;56.60;;;;;;9172274;19;20018;-63
2022/08/28 10:54:27;;;;;;;8.18;1.73;;;23.90;56.30;;;;;;9175037;19;20023;-66
2022/08/28 10:57:37;;;;;;;3.00;1.27;;;24.00;55.80;;;;;;9175067;19;20369;-66
2022/08/28 11:00:48;;;;;;;6.15;1.20;;;24.20;55.90;;;;;;9169579;19;20467;-66
2022/08/28 11:03:54;;;;;;;5.22;1.25;;;24.30;55.60;;;;;;9172833;19;20045;-67
2022/08/28 11:07:03;;;;;;;3.40;1.67;;;24.50;55.60;;;;;;9172895;19;20353;-65
2022/08/28 11:10:22;;;;;;;4.25;1.20;;;24.60;55.20;;;;;;9174704;19;20015;-64
2022/08/28 11:13:54;;;;;;;5.40;1.50;;;24.70;54.70;;;;;;9174140;19;20029;-66
2022/08/28 11:17:05;;;;;;;6.25;1.48;;;24.80;54.30;;;;;;9168313;19;20018;-63
2022/08/28 11:20:17;;;;;;;5.07;1.63;;;24.80;54.50;;;;;;9164453;19;21131;-65
2022/08/28 11:23:28;;;;;;;6.50;1.50;;;24.90;54.40;;;;;;9162606;19;20022;-65
2022/08/28 11:26:41;;;;;;;5.45;1.30;;;24.90;54.30;;;;;;9151077;19;20022;-63
2022/08/28 11:30:07;;;;;;;5.43;1.40;;;25.00;54.10;;;;;;9159963;19;20040;-66
2022/08/28 11:33:40;;;;;;;3.90;1.50;;;25.10;53.90;;;;;;9165883;19;20055;-65
2022/08/28 11:37:03;;;;;;;5.18;1.80;;;25.20;53.70;;;;;;9169438;19;20026;-64
2022/08/28 11:40:42;;;;;;;5.55;1.52;;;25.30;53.50;;;;;;9167965;19;20022;-62
2022/08/28 11:43:52;;;;;;;4.55;1.45;;;25.40;53.30;;;;;;9168370;19;20412;-64
2022/08/28 11:47:17;;;;;;;4.13;1.25;;;25.40;53.30;;;;;;9162466;19;20467;-65
2022/08/28 11:50:28;;;;;;;5.47;1.60;;;25.40;53.20;;;;;;9166930;19;20116;-66
2022/08/28 11:53:46;;;;;;;4.50;1.58;;;25.40;52.90;;;;;;9166342;19;20025;-65
2022/08/28 11:57:03;;;;;;;5.43;1.70;;;25.40;52.60;;;;;;9167337;19;20018;-64
2022/08/28 12:00:20;;;;;;;3.72;1.48;;;25.40;52.60;;;;;;9175697;19;20018;-66
2022/08/28 12:03:32;;;;;;;3.60;1.30;;;25.40;52.50;;;;;;9176598;19;20834;-64
2022/08/28 12:07:16;;;;;;;3.15;1.30;;;25.40;52.40;;;;;;9175127;19;20022;-64
2022/08/28 12:10:51;;;;;;;4.50;1.58;;;25.30;51.90;;;;;;9174671;19;20030;-66
2022/08/28 12:13:56;;;;;;;8.30;1.45;;;25.30;51.90;;;;;;9176124;19;20011;-64
2022/08/28 12:17:27;;;;;;;9.73;1.50;;;25.30;52.20;;;;;;9176104;19;20015;-64
2022/08/28 12:20:58;;;;;;;4.30;1.55;;;25.20;51.70;;;;;;9175685;19;20415;-64
2022/08/28 12:24:06;;;;;;;8.70;2.20;;;25.20;51.80;;;;;;9176628;19;20058;-65
2022/08/28 12:27:15;;;;;;;7.28;2.05;;;25.10;51.80;;;;;;9167827;19;20052;-64
2022/08/28 12:30:30;;;;;;;5.50;1.70;;;25.00;51.70;;;;;;9169005;19;20022;-66
2022/08/28 12:33:48;;;;;;;4.32;1.67;;;25.00;51.40;;;;;;9174231;19;20027;-63
2022/08/28 12:36:58;;;;;;;5.38;1.80;;;25.00;51.50;;;;;;9173370;19;20033;-65
2022/08/28 12:40:17;;;;;;;5.55;1.83;;;25.00;51.40;;;;;;9176012;19;20045;-66
2022/08/28 12:43:31;;;;;;;6.80;2.00;;;25.00;51.10;;;;;;9174900;19;20026;-66
2022/08/28 12:46:39;;;;;;;4.88;1.63;;;24.90;51.00;;;;;;9174643;19;20480;-65
2022/08/28 12:49:47;;;;;;;7.80;2.00;;;25.00;51.20;;;;;;9175417;19;20022;-65
2022/08/28 12:52:54;;;;;;;6.90;2.05;;;25.00;51.10;;;;;;9166742;19;20026;-66
2022/08/28 12:56:00;;;;;;;8.32;2.20;;;25.00;51.10;;;;;;9169331;19;20022;-64
2022/08/28 12:59:23;;;;;;;3.35;1.20;;;25.00;51.00;;;;;;9172479;19;20025;-65
2022/08/28 13:02:34;;;;;;;5.40;1.67;;;25.00;50.70;;;;;;9171479;19;20053;-64
2022/08/28 13:05:42;;;;;;;9.50;2.00;;;25.00;50.90;;;;;;9179364;19;20022;-66
2022/08/28 13:08:50;;;;;;;4.40;1.40;;;25.10;50.90;;;;;;9179006;19;20483;-64
2022/08/28 13:11:55;;;;;;;2.10;1.40;;;25.10;50.70;;;;;;9178484;19;20015;-66
2022/08/28 13:15:00;;;;;;;6.22;1.70;;;25.10;50.70;;;;;;9177047;19;20018;-66
2022/08/28 13:18:07;;;;;;;7.00;1.67;;;25.10;50.70;;;;;;9175271;19;20022;-65
2022/08/28 13:21:34;;;;;;;6.18;1.75;;;25.10;50.50;;;;;;9178640;19;20010;-66
2022/08/28 13:24:47;;;;;;;7.25;2.13;;;25.10;50.20;;;;;;9178106;19;20014;-65
2022/08/28 13:28:01;;;;;;;5.07;1.25;;;25.00;50.40;;;;;;9172718;19;20010;-66
2022/08/28 13:31:21;;;;;;;4.30;1.75;;;25.00;50.20;;;;;;9174381;19;20021;-65
2022/08/28 13:34:28;;;;;;;7.70;1.60;;;24.90;50.20;;;;;;9177116;19;20018;-63
2022/08/28 13:37:46;;;;;;;5.72;1.60;;;24.90;50.20;;;;;;9175837;19;20018;-64
2022/08/28 13:40:53;;;;;;;3.70;1.60;;;24.80;49.70;;;;;;9174206;19;20030;-65
2022/08/28 13:44:03;;;;;;;5.65;1.48;;;24.80;49.90;;;;;;9177124;19;20018;-64
2022/08/28 13:47:08;;;;;;;6.22;1.98;;;24.80;49.90;;;;;;9176991;19;20018;-65
2022/08/28 13:50:13;;;;;;;4.75;1.52;;;24.70;49.90;;;;;;9175011;19;20026;-63
2022/08/28 13:53:22;;;;;;;5.00;1.67;;;24.80;49.90;;;;;;9178489;19;20017;-64
2022/08/28 13:56:27;;;;;;;4.47;1.67;;;24.70;49.80;;;;;;9177797;19;20469;-64
2022/08/28 13:59:33;;;;;;;4.65;1.70;;;24.70;49.90;;;;;;9177453;19;20010;-66
2022/08/28 14:05:58;;;;;;;7.35;1.80;;;24.60;49.60;;;;;;9176624;19;20479;-65
2022/08/28 14:09:11;;;;;;;3.65;1.70;;;24.60;49.60;;;;;;9176253;19;20015;-65
2022/08/28 14:12:16;;;;;;;4.22;1.75;;;24.50;49.40;;;;;;9176124;19;20428;-64
2022/08/28 14:15:21;;;;;;;8.13;1.70;;;24.50;49.50;;;;;;9176310;19;20026;-64
2022/08/28 14:18:27;;;;;;;10.40;1.55;;;24.50;49.50;;;;;;9176063;19;20018;-66
2022/08/28 14:21:33;;;;;;;2.53;1.30;;;24.50;49.40;;;;;;9173854;19;20085;-64
2022/08/28 14:24:41;;;;;;;9.27;1.80;;;24.50;49.40;;;;;;9174315;19;20356;-63
2022/08/28 14:27:46;;;;;;;3.50;1.25;;;24.50;49.10;;;;;;9167216;19;20479;-63
2022/08/28 14:30:53;;;;;;;6.00;1.90;;;24.50;49.10;;;;;;9176830;19;20018;-63
2022/08/28 14:33:59;;;;;;;2.92;1.30;;;24.50;48.90;;;;;;9177134;19;20018;-65
2022/08/28 14:37:05;;;;;;;2.70;1.38;;;24.50;48.90;;;;;;9175458;19;20020;-64
2022/08/28 14:40:14;;;;;;;6.38;1.80;;;24.40;48.80;;;;;;9176548;19;20025;-64
2022/08/28 14:43:20;;;;;;;6.95;1.52;;;24.30;48.70;;;;;;9179962;19;20030;-65
2022/08/28 14:46:29;;;;;;;6.40;1.67;;;24.30;48.80;;;;;;9179619;19;20471;-64
2022/08/28 14:49:34;;;;;;;3.25;1.50;;;24.20;48.70;;;;;;9180781;19;20773;-63
2022/08/28 14:52:39;;;;;;;3.30;1.42;;;24.20;48.80;;;;;;9179727;19;20014;-62
2022/08/28 14:55:50;;;;;;;5.50;1.88;;;24.10;49.40;;;;;;9181725;19;20014;-62
2022/08/28 14:58:55;;;;;;;4.68;1.30;;;24.10;48.80;;;;;;9181646;19;20018;-61
2022/08/28 15:02:01;;;;;;;5.50;1.80;;;24.00;48.80;;;;;;9181327;19;20364;-64
2022/08/28 15:05:07;;;;;;;4.20;1.80;;;24.00;48.70;;;;;;9182051;19;20023;-64
2022/08/28 15:08:17;;;;;;;6.57;1.90;;;24.00;48.70;;;;;;9179516;19;20034;-63
2022/08/28 15:11:27;;;;;;;4.80;1.58;;;24.00;48.60;;;;;;9181453;19;20042;-65
2022/08/28 15:14:32;;;;;;;7.60;2.00;;;23.90;48.60;;;;;;9180710;19;20019;-65
2022/08/28 15:17:37;;;;;;;4.93;1.60;;;23.90;48.60;;;;;;9174729;19;20494;-63
2022/08/28 15:20:45;;;;;;;5.60;2.08;;;23.90;48.60;;;;;;9174075;19;20029;-64
2022/08/28 15:23:51;;;;;;;3.53;1.58;;;23.70;48.50;;;;;;9172376;19;20022;-63
2022/08/28 15:27:00;;;;;;;4.45;1.73;;;23.70;48.70;;;;;;9170152;19;20011;-65
2022/08/28 15:30:06;;;;;;;6.63;1.58;;;23.60;48.70;;;;;;9170175;19;20021;-64
2022/08/28 15:33:11;;;;;;;3.78;1.60;;;23.60;48.70;;;;;;9162449;19;20380;-65
2022/08/28 15:36:16;;;;;;;6.68;1.65;;;23.50;48.70;;;;;;9167024;19;20348;-65
2022/08/28 15:42:44;;;;;;;6.07;1.70;;;23.50;48.70;;;;;;9160127;19;20026;-64
2022/08/28 15:45:50;;;;;;;8.73;1.83;;;23.50;48.70;;;;;;9167140;19;20022;-65
2022/08/28 15:48:56;;;;;;;3.78;1.40;;;23.50;48.80;;;;;;9165745;19;20578;-65
2022/08/28 15:52:01;;;;;;;4.50;1.67;;;23.50;48.80;;;;;;9167648;19;20368;-64
2022/08/28 15:55:09;;;;;;;1.80;1.20;;;23.50;48.80;;;;;;9167487;19;20052;-64
2022/08/28 15:58:17;;;;;;;1.65;1.25;;;23.50;48.90;;;;;;9169448;19;20018;-64
2022/08/28 16:01:22;;;;;;;4.82;1.20;;;23.50;49.00;;;;;;9168392;19;20011;-65
2022/08/28 16:04:28;;;;;;;4.18;1.50;;;23.50;49.00;;;;;;9166625;19;20022;-65
2022/08/28 16:07:33;;;;;;;6.10;1.30;;;23.40;49.00;;;;;;9168634;19;20015;-65
2022/08/28 16:10:38;;;;;;;3.60;1.50;;;23.30;49.10;;;;;;9173019;19;20694;-65
2022/08/28 16:13:46;;;;;;;5.22;1.50;;;23.30;49.20;;;;;;9173718;19;20014;-64
2022/08/28 16:16:51;;;;;;;3.03;1.20;;;23.20;49.20;;;;;;9172302;19;20029;-67
2022/08/28 16:19:56;;;;;;;2.28;1.23;;;23.20;49.30;;;;;;9171141;19;20010;-65
2022/08/28 16:23:01;;;;;;;4.47;1.35;;;23.10;49.40;;;;;;9173364;19;20014;-64
2022/08/28 16:26:08;;;;;;;3.22;1.08;;;23.00;49.50;;;;;;9172431;19;20384;-65
2022/08/28 16:29:16;;;;;;;3.72;1.20;;;23.00;49.60;;;;;;9166809;19;20058;-67
2022/08/28 16:32:22;;;;;;;5.90;1.40;;;22.90;49.70;;;;;;9172611;19;20007;-65